createdAt,value
2023-05-02T00:01:48.792Z,6.17
2023-05-02T00:04:16.808Z,6.30
2023-05-02T00:06:46.821Z,6.65
2023-05-02T00:09:16.368Z,6.78
2023-05-02T00:11:44.116Z,6.43
2023-05-02T00:14:11.709Z,6.17
2023-05-02T00:16:39.326Z,6.43
2023-05-02T00:19:07.195Z,6.47
2023-05-02T00:21:34.770Z,7.03
2023-05-02T00:24:02.368Z,6.75
2023-05-02T00:26:31.663Z,6.20
2023-05-02T00:28:59.364Z,5.95
2023-05-02T00:31:26.997Z,6.40
2023-05-02T00:33:54.756Z,6.43
2023-05-02T00:36:22.378Z,6.10
2023-05-02T00:38:49.920Z,6.00
2023-05-02T00:41:18.543Z,5.88
2023-05-02T00:43:47.457Z,6.45
2023-05-02T00:46:15.659Z,7.63
2023-05-02T00:48:45.144Z,8.25
2023-05-02T00:51:13.677Z,8.23
2023-05-02T00:53:41.807Z,8.65
2023-05-02T00:56:09.862Z,9.20
2023-05-02T00:58:39.456Z,7.97
2023-05-02T01:01:24.774Z,7.25
2023-05-02T01:04:02.256Z,7.30
2023-05-02T01:06:41.177Z,6.00
2023-05-02T01:09:23.285Z,6.20
2023-05-02T01:11:57.792Z,5.88
2023-05-02T01:14:28.428Z,6.18
2023-05-02T01:16:59.091Z,6.43
2023-05-02T01:19:33.382Z,5.95
2023-05-02T01:22:04.517Z,5.72
2023-05-02T01:24:40.214Z,6.22
2023-05-02T01:28:15.331Z,6.10
2023-05-02T01:30:47.340Z,6.53
2023-05-02T01:33:17.522Z,5.53
2023-05-02T01:35:48.352Z,5.43
2023-05-02T01:38:17.944Z,5.47
2023-05-02T01:40:46.720Z,5.40
2023-05-02T01:43:15.572Z,5.43
2023-05-02T01:45:46.961Z,6.13
2023-05-02T01:48:16.048Z,5.68
2023-05-02T01:50:47.325Z,6.10
2023-05-02T01:53:15.751Z,5.50
2023-05-02T01:55:45.735Z,7.00
2023-05-02T01:58:15.380Z,6.65
2023-05-02T02:00:46.809Z,6.28
2023-05-02T02:03:16.020Z,6.25
2023-05-02T02:05:43.801Z,6.10
2023-05-02T02:08:11.535Z,7.03
2023-05-02T02:10:46.406Z,6.30
2023-05-02T02:13:19.050Z,6.40
2023-05-02T02:15:49.510Z,7.03
2023-05-02T02:18:22.494Z,6.25
2023-05-02T02:20:52.762Z,6.07
2023-05-02T02:23:23.215Z,5.80
2023-05-02T02:25:53.461Z,5.65
2023-05-02T02:28:21.105Z,5.65
2023-05-02T02:30:50.301Z,6.18
2023-05-02T02:33:18.892Z,6.90
2023-05-02T02:35:52.972Z,10.32
2023-05-02T02:38:28.533Z,16.05
2023-05-02T02:40:58.643Z,11.88
2023-05-02T02:43:34.632Z,10.60
2023-05-02T02:46:18.149Z,9.03
2023-05-02T02:48:54.261Z,6.40
2023-05-02T02:51:29.721Z,6.38
2023-05-02T02:54:19.100Z,6.03
2023-05-02T02:57:01.709Z,6.82
2023-05-02T02:59:32.650Z,6.27
2023-05-02T03:02:08.426Z,5.97
2023-05-02T03:04:39.927Z,6.60
2023-05-02T03:07:07.571Z,5.70
2023-05-02T03:09:42.299Z,6.10
2023-05-02T03:12:09.907Z,5.77
2023-05-02T03:14:37.994Z,5.30
2023-05-02T03:17:08.854Z,6.43
2023-05-02T03:19:37.219Z,5.38
2023-05-02T03:22:04.948Z,5.43
2023-05-02T03:24:32.546Z,5.90
2023-05-02T03:27:00.827Z,5.25
2023-05-02T03:29:29.040Z,5.75
2023-05-02T03:31:56.764Z,6.32
2023-05-02T03:34:25.877Z,6.75
2023-05-02T03:36:53.472Z,7.47
2023-05-02T03:39:21.044Z,6.50
2023-05-02T03:41:48.776Z,6.90
2023-05-02T03:44:16.399Z,7.40
2023-05-02T03:46:44.195Z,6.88
2023-05-02T03:49:12.066Z,6.90
2023-05-02T03:51:41.150Z,6.63
2023-05-02T03:54:09.817Z,7.18
2023-05-02T03:56:37.718Z,7.50
2023-05-02T03:59:05.712Z,7.75
2023-05-02T04:01:33.274Z,6.83
2023-05-02T04:04:01.000Z,6.53
2023-05-02T04:06:28.738Z,6.85
2023-05-02T04:08:58.499Z,7.63
2023-05-02T04:11:27.876Z,7.05
2023-05-02T04:13:55.463Z,6.40
2023-05-02T04:16:23.519Z,7.55
2023-05-02T04:18:51.164Z,6.43
2023-05-02T04:21:18.725Z,7.53
2023-05-02T04:23:46.702Z,7.05
2023-05-02T04:26:16.325Z,7.30
2023-05-02T04:28:43.930Z,6.80
2023-05-02T04:31:12.228Z,7.15
2023-05-02T04:33:39.834Z,6.40
2023-05-02T04:36:08.284Z,6.80
2023-05-02T04:38:35.849Z,7.37
2023-05-02T04:41:09.022Z,7.07
2023-05-02T04:43:38.971Z,7.30
2023-05-02T04:46:07.264Z,9.68
2023-05-02T04:48:34.881Z,9.07
2023-05-02T04:51:02.644Z,7.80
2023-05-02T04:53:30.241Z,8.07
2023-05-02T04:55:58.388Z,9.55
2023-05-02T04:58:26.087Z,8.15
2023-05-02T05:00:55.860Z,7.90
2023-05-02T05:03:23.515Z,7.40
2023-05-02T05:05:51.136Z,7.60
2023-05-02T05:08:19.438Z,7.63
2023-05-02T05:10:47.050Z,7.82
2023-05-02T05:13:14.764Z,7.00
2023-05-02T05:15:42.566Z,7.00
2023-05-02T05:18:11.586Z,17.42
2023-05-02T05:20:39.316Z,9.55
2023-05-02T05:23:07.362Z,8.48
2023-05-02T05:25:34.957Z,7.72
2023-05-02T05:28:02.507Z,7.87
2023-05-02T05:30:31.189Z,7.47
2023-05-02T05:32:59.216Z,7.38
2023-05-02T05:35:29.404Z,7.28
2023-05-02T05:37:57.146Z,7.45
2023-05-02T05:40:24.735Z,7.40
2023-05-02T05:42:52.303Z,10.23
2023-05-02T05:45:20.565Z,8.02
2023-05-02T05:47:48.494Z,6.88
2023-05-02T05:50:16.285Z,6.78
2023-05-02T05:52:45.793Z,6.40
2023-05-02T05:55:14.896Z,6.68
2023-05-02T05:57:42.676Z,6.25
2023-05-02T06:00:12.234Z,6.20
2023-05-02T06:02:39.922Z,5.93
2023-05-02T06:05:08.173Z,6.47
2023-05-02T06:07:36.117Z,6.78
2023-05-02T06:10:09.928Z,6.55
2023-05-02T06:12:37.761Z,7.10
2023-05-02T06:15:09.233Z,6.40
2023-05-02T06:17:41.351Z,7.20
2023-05-02T06:20:10.350Z,7.65
2023-05-02T06:22:39.588Z,7.22
2023-05-02T06:25:09.888Z,7.25
2023-05-02T06:27:37.470Z,6.32
2023-05-02T06:30:06.061Z,7.07
2023-05-02T06:32:34.179Z,7.55
2023-05-02T06:35:02.385Z,7.32
2023-05-02T06:37:35.710Z,7.90
2023-05-02T06:40:03.897Z,6.88
2023-05-02T06:42:33.236Z,7.83
2023-05-02T06:45:00.831Z,6.80
2023-05-02T06:47:29.094Z,7.28
2023-05-02T06:49:57.307Z,7.53
2023-05-02T06:52:25.112Z,7.43
2023-05-02T06:54:52.851Z,7.60
2023-05-02T06:57:20.485Z,7.47
2023-05-02T06:59:49.424Z,7.25
2023-05-02T07:02:17.527Z,7.18
2023-05-02T07:04:45.304Z,7.57
2023-05-02T07:07:12.979Z,6.87
2023-05-02T07:09:40.690Z,7.18
2023-05-02T07:12:08.606Z,7.10
2023-05-02T07:14:36.291Z,7.28
2023-05-02T07:17:05.510Z,7.50
2023-05-02T07:19:33.244Z,7.37
2023-05-02T07:22:00.944Z,7.03
2023-05-02T07:24:28.518Z,6.97
2023-05-02T07:26:56.239Z,7.30
2023-05-02T07:29:23.791Z,7.20
2023-05-02T07:31:52.024Z,6.80
2023-05-02T07:34:21.646Z,7.30
2023-05-02T07:36:49.895Z,7.78
2023-05-02T07:39:17.561Z,6.75
2023-05-02T07:41:45.294Z,6.82
2023-05-02T07:44:13.165Z,6.10
2023-05-02T07:46:40.774Z,7.15
2023-05-02T07:49:08.496Z,6.80
2023-05-02T07:51:39.896Z,6.82
2023-05-02T07:54:16.496Z,6.40
2023-05-02T07:56:44.475Z,5.90
2023-05-02T07:59:12.530Z,5.63
2023-05-02T08:01:41.677Z,6.15
2023-05-02T08:04:10.463Z,6.60
2023-05-02T08:06:39.768Z,6.47
2023-05-02T08:09:07.613Z,6.47
2023-05-02T08:11:35.396Z,6.20
2023-05-02T08:14:03.318Z,7.13
2023-05-02T08:16:30.982Z,6.88
2023-05-02T08:18:58.810Z,7.70
2023-05-02T08:21:28.002Z,6.67
2023-05-02T08:23:59.130Z,7.70
2023-05-02T08:26:27.318Z,7.05
2023-05-02T08:28:55.137Z,7.47
2023-05-02T08:31:22.935Z,7.70
2023-05-02T08:33:51.761Z,7.00
2023-05-02T08:36:21.371Z,7.10
2023-05-02T08:38:49.583Z,7.72
2023-05-02T08:41:20.097Z,7.35
2023-05-02T08:43:48.160Z,7.70
2023-05-02T08:46:17.286Z,8.17
2023-05-02T08:48:48.297Z,7.60
2023-05-02T08:53:51.907Z,7.18
2023-05-02T08:56:21.561Z,7.45
2023-05-02T08:58:49.139Z,6.93
2023-05-02T09:01:18.531Z,7.45
2023-05-02T09:03:47.208Z,8.05
2023-05-02T09:06:17.005Z,7.18
2023-05-02T09:08:48.888Z,7.90
2023-05-02T09:11:17.431Z,8.40
2023-05-02T09:13:47.616Z,8.20
2023-05-02T09:16:17.312Z,7.63
2023-05-02T09:18:46.812Z,8.10
2023-05-02T09:21:17.908Z,8.07
2023-05-02T09:23:49.057Z,7.70
2023-05-02T09:26:21.485Z,7.93
2023-05-02T09:28:52.055Z,8.93
2023-05-02T09:31:43.477Z,7.38
2023-05-02T09:34:11.718Z,7.60
2023-05-02T09:36:42.082Z,8.10
2023-05-02T09:39:12.098Z,7.10
2023-05-02T09:41:43.050Z,7.40
2023-05-02T09:44:13.540Z,6.95
2023-05-02T09:46:42.893Z,7.22
2023-05-02T09:49:10.891Z,6.50
2023-05-02T09:51:38.759Z,6.78
2023-05-02T09:54:06.385Z,7.13
2023-05-02T09:56:54.260Z,7.43
2023-05-02T09:59:23.614Z,6.75
2023-05-02T10:01:58.813Z,6.60
2023-05-02T10:04:27.733Z,6.82
2023-05-02T10:06:56.337Z,6.65
2023-05-02T10:09:24.186Z,6.57
2023-05-02T10:11:54.017Z,6.18
2023-05-02T10:14:26.988Z,6.27
2023-05-02T10:17:01.772Z,6.10
2023-05-02T10:19:33.909Z,5.90
2023-05-02T10:22:02.838Z,5.38
2023-05-02T10:24:33.541Z,6.10
2023-05-02T10:27:02.190Z,5.13
2023-05-02T10:29:32.551Z,5.70
2023-05-02T10:32:04.061Z,5.88
2023-05-02T10:34:33.831Z,5.53
2023-05-02T10:37:03.254Z,5.70
2023-05-02T10:39:33.282Z,5.47
2023-05-02T10:42:04.150Z,4.78
2023-05-02T10:44:37.021Z,5.30
2023-05-02T10:47:21.227Z,5.00
2023-05-02T10:49:53.392Z,5.22
2023-05-02T10:52:29.367Z,4.90
2023-05-02T10:55:20.961Z,5.63
2023-05-02T10:58:22.779Z,4.57
2023-05-02T11:00:52.319Z,5.13
2023-05-02T11:03:58.249Z,5.15
2023-05-02T11:06:27.853Z,5.03
2023-05-02T11:09:37.077Z,4.47
2023-05-02T11:12:07.176Z,4.60
2023-05-02T11:14:49.500Z,4.60
2023-05-02T11:17:21.347Z,5.38
2023-05-02T11:20:36.100Z,4.80
2023-05-02T11:23:27.043Z,6.65
2023-05-02T11:25:56.875Z,5.47
2023-05-02T11:28:48.586Z,5.25
2023-05-02T11:32:05.077Z,5.70
2023-05-02T11:34:45.687Z,5.37
2023-05-02T11:37:15.427Z,5.60
2023-05-02T11:39:43.317Z,5.20
2023-05-02T11:42:11.570Z,4.50
2023-05-02T11:44:57.841Z,4.93
2023-05-02T11:47:27.234Z,4.67
2023-05-02T11:49:57.348Z,4.30
2023-05-02T11:52:25.495Z,4.70
2023-05-02T11:54:55.975Z,4.88
2023-05-02T11:57:24.179Z,4.55
2023-05-02T11:59:53.399Z,4.90
2023-05-02T12:02:21.354Z,5.00
2023-05-02T12:04:48.982Z,4.10
2023-05-02T12:07:18.501Z,5.00
2023-05-02T12:09:52.831Z,4.00
2023-05-02T12:12:21.476Z,3.53
2023-05-02T12:14:49.378Z,4.72
2023-05-02T12:17:18.205Z,4.05
2023-05-02T12:19:46.147Z,3.53
2023-05-02T12:22:14.535Z,3.53
2023-05-02T12:24:44.488Z,3.37
2023-05-02T12:27:13.310Z,3.40
2023-05-02T12:29:42.845Z,3.28
2023-05-02T12:32:11.054Z,3.35
2023-05-02T12:34:40.707Z,3.67
2023-05-02T12:37:09.874Z,3.10
2023-05-02T12:39:38.797Z,3.20
2023-05-02T12:42:14.918Z,3.08
2023-05-02T12:44:43.884Z,3.15
2023-05-02T12:47:13.195Z,3.38
2023-05-02T12:49:51.238Z,3.00
2023-05-02T12:52:19.109Z,3.08
2023-05-02T12:54:47.228Z,2.90
2023-05-02T12:57:26.510Z,3.90
2023-05-02T12:59:55.085Z,3.40
2023-05-02T13:02:22.889Z,3.20
2023-05-02T13:04:51.086Z,3.30
2023-05-02T13:07:18.698Z,3.00
2023-05-02T13:09:46.435Z,3.00
2023-05-02T13:12:14.492Z,2.35
2023-05-02T13:14:43.695Z,2.87
2023-05-02T13:17:14.169Z,2.92
2023-05-02T13:19:50.625Z,2.78
2023-05-02T13:22:22.096Z,2.83
2023-05-02T13:24:50.003Z,3.17
2023-05-02T13:27:18.467Z,3.10
2023-05-02T13:29:47.449Z,3.08
2023-05-02T13:32:15.570Z,2.70
2023-05-02T13:34:43.616Z,2.30
2023-05-02T13:37:11.320Z,2.15
2023-05-02T13:39:38.916Z,2.40
2023-05-02T13:42:06.848Z,2.55
2023-05-02T13:44:34.853Z,3.10
2023-05-02T13:47:04.087Z,3.20
2023-05-02T13:49:32.248Z,3.67
2023-05-02T13:51:59.884Z,4.60
2023-05-02T13:54:28.346Z,3.72
2023-05-02T13:56:56.104Z,4.68
2023-05-02T13:59:23.767Z,4.75
2023-05-02T14:01:51.877Z,4.18
2023-05-02T14:04:22.310Z,3.93
2023-05-02T14:06:51.263Z,3.50
2023-05-02T14:09:18.930Z,3.40
2023-05-02T14:11:47.448Z,3.50
2023-05-02T14:14:15.627Z,1.90
2023-05-02T14:16:43.254Z,2.47
2023-05-02T14:19:11.012Z,1.60
2023-05-02T14:21:40.065Z,1.80
2023-05-02T14:24:07.962Z,1.65
2023-05-02T14:26:36.174Z,2.70
2023-05-02T14:29:04.583Z,2.23
2023-05-02T14:31:32.237Z,2.70
2023-05-02T14:34:00.780Z,1.95
2023-05-02T14:36:28.571Z,2.50
2023-05-02T14:38:57.831Z,1.90
2023-05-02T14:41:26.775Z,1.67
2023-05-02T14:43:54.541Z,2.38
2023-05-02T14:46:22.254Z,2.95
2023-05-02T14:48:50.035Z,3.05
2023-05-02T14:51:17.630Z,2.53
2023-05-02T14:53:45.599Z,3.20
2023-05-02T14:56:17.205Z,2.97
2023-05-02T14:58:44.839Z,2.75
2023-05-02T15:01:19.293Z,2.97
2023-05-02T15:04:04.179Z,2.75
2023-05-02T15:06:34.557Z,6.33
2023-05-02T15:09:02.685Z,2.47
2023-05-02T15:11:31.675Z,1.90
2023-05-02T15:13:59.738Z,1.05
2023-05-02T15:16:27.842Z,1.80
2023-05-02T15:18:55.692Z,1.60
2023-05-02T15:21:23.728Z,2.13
2023-05-02T15:23:51.463Z,2.55
2023-05-02T15:26:19.382Z,2.42
2023-05-02T15:28:48.658Z,2.50
2023-05-02T15:31:16.243Z,2.40
2023-05-02T15:33:43.952Z,2.30
2023-05-02T15:36:12.582Z,1.85
2023-05-02T15:38:42.348Z,2.20
2023-05-02T15:41:11.737Z,1.85
2023-05-02T15:43:39.696Z,1.83
2023-05-02T15:46:08.735Z,1.73
2023-05-02T15:48:36.593Z,1.70
2023-05-02T15:51:05.347Z,1.38
2023-05-02T15:53:34.719Z,1.40
2023-05-02T15:56:02.323Z,1.40
2023-05-02T15:58:30.458Z,1.23
2023-05-02T16:00:58.107Z,1.30
2023-05-02T16:03:27.543Z,1.88
2023-05-02T16:05:56.019Z,1.55
2023-05-02T16:08:23.705Z,1.10
2023-05-02T16:10:51.685Z,1.30
2023-05-02T16:13:19.427Z,1.40
2023-05-02T16:15:48.156Z,1.50
2023-05-02T16:18:16.654Z,1.70
2023-05-02T16:20:47.736Z,4.10
2023-05-02T16:23:15.341Z,5.70
2023-05-02T16:25:43.086Z,4.90
2023-05-02T16:28:10.676Z,4.78
2023-05-02T16:30:38.319Z,4.60
2023-05-02T16:33:06.155Z,3.90
2023-05-02T16:35:34.874Z,4.57
2023-05-02T16:38:04.240Z,4.32
2023-05-02T16:40:31.825Z,3.28
2023-05-02T16:42:59.635Z,4.18
2023-05-02T16:45:27.407Z,3.80
2023-05-02T16:47:55.555Z,3.60
2023-05-02T16:50:23.544Z,3.83
2023-05-02T16:52:51.785Z,2.92
2023-05-02T16:55:22.957Z,3.00
2023-05-02T16:57:53.526Z,3.33
2023-05-02T17:00:22.480Z,2.80
2023-05-02T17:02:56.989Z,3.08
2023-05-02T17:05:24.991Z,3.40
2023-05-02T17:07:52.646Z,3.10
2023-05-02T17:10:21.987Z,2.70
2023-05-02T17:12:49.817Z,2.55
2023-05-02T17:15:17.759Z,3.70
2023-05-02T17:17:45.639Z,4.18
2023-05-02T17:20:13.460Z,3.50
2023-05-02T17:22:41.599Z,3.37
2023-05-02T17:25:11.142Z,3.47
2023-05-02T17:27:41.161Z,2.92
2023-05-02T17:30:09.976Z,2.78
2023-05-02T17:32:38.962Z,2.63
2023-05-02T17:35:07.596Z,2.40
2023-05-02T17:37:38.152Z,2.97
2023-05-02T17:40:08.651Z,3.88
2023-05-02T17:42:36.362Z,3.65
2023-05-02T17:45:07.529Z,3.90
2023-05-02T17:47:35.243Z,3.83
2023-05-02T17:50:05.257Z,3.38
2023-05-02T17:52:36.370Z,4.00
2023-05-02T17:55:05.410Z,3.63
2023-05-02T17:57:33.318Z,4.05
2023-05-02T18:00:01.418Z,4.30
2023-05-02T18:02:31.206Z,5.88
2023-05-02T18:05:00.700Z,7.70
2023-05-02T18:07:30.348Z,6.47
2023-05-02T18:10:02.143Z,5.20
2023-05-02T18:12:31.800Z,4.43
2023-05-02T18:15:00.148Z,3.80
2023-05-02T18:17:28.711Z,3.60
2023-05-02T18:19:59.899Z,3.40
2023-05-02T18:22:28.121Z,3.30
2023-05-02T18:24:57.120Z,4.17
2023-05-02T18:27:27.468Z,4.10
2023-05-02T18:29:55.525Z,3.67
2023-05-02T18:32:23.326Z,3.55
2023-05-02T18:34:51.416Z,3.75
2023-05-02T18:37:22.191Z,3.27
2023-05-02T18:39:50.034Z,3.20
2023-05-02T18:42:17.737Z,3.97
2023-05-02T18:44:48.616Z,3.35
2023-05-02T18:47:17.205Z,3.10
2023-05-02T18:49:47.830Z,3.23
2023-05-02T18:52:15.422Z,2.67
2023-05-02T18:54:44.585Z,3.08
2023-05-02T18:57:12.959Z,2.70
2023-05-02T18:59:40.899Z,3.00
2023-05-02T19:02:08.955Z,2.93
2023-05-02T19:04:36.828Z,2.53
2023-05-02T19:07:04.434Z,2.78
2023-05-02T19:09:32.603Z,2.88
2023-05-02T19:12:01.703Z,2.88
2023-05-02T19:14:30.371Z,2.37
2023-05-02T19:16:58.171Z,3.05
2023-05-02T19:19:27.510Z,3.10
2023-05-02T19:21:55.245Z,2.95
2023-05-02T19:24:23.503Z,4.07
2023-05-02T19:26:51.423Z,3.40
2023-05-02T19:29:20.817Z,2.78
2023-05-02T19:31:48.555Z,3.00
2023-05-02T19:34:17.127Z,3.22
2023-05-02T19:36:44.929Z,3.15
2023-05-02T19:39:13.377Z,2.90
2023-05-02T19:41:42.627Z,3.20
2023-05-02T19:44:10.694Z,3.35
2023-05-02T19:46:39.953Z,3.22
2023-05-02T19:49:08.984Z,3.22
2023-05-02T19:51:36.697Z,3.33
2023-05-02T19:54:04.553Z,3.42
2023-05-02T19:56:32.479Z,3.15
2023-05-02T19:59:01.275Z,3.13
2023-05-02T20:01:29.543Z,3.00
2023-05-02T20:04:00.394Z,2.80
2023-05-02T20:06:28.707Z,3.00
2023-05-02T20:08:56.521Z,3.08
2023-05-02T20:11:26.295Z,2.60
2023-05-02T20:13:54.698Z,2.75
2023-05-02T20:16:22.366Z,2.40
2023-05-02T20:18:50.024Z,2.40
2023-05-02T20:21:19.613Z,2.35
2023-05-02T20:23:47.466Z,2.63
2023-05-02T20:26:17.557Z,2.17
2023-05-02T20:28:45.602Z,2.20
2023-05-02T20:31:13.323Z,2.40
2023-05-02T20:33:45.645Z,2.10
2023-05-02T20:36:15.008Z,2.53
2023-05-02T20:38:44.871Z,2.17
2023-05-02T20:41:13.953Z,1.90
2023-05-02T20:43:45.098Z,1.98
2023-05-02T20:46:16.094Z,1.95
2023-05-02T20:48:44.393Z,1.58
2023-05-02T20:51:12.100Z,2.03
2023-05-02T20:53:40.312Z,1.90
2023-05-02T20:56:10.412Z,1.67
2023-05-02T20:58:38.324Z,1.85
2023-05-02T21:01:06.408Z,1.50
2023-05-02T21:03:36.704Z,1.83
2023-05-02T21:06:04.986Z,1.90
2023-05-02T21:08:33.063Z,1.88
2023-05-02T21:11:01.302Z,2.05
2023-05-02T21:13:30.833Z,2.10
2023-05-02T21:15:58.442Z,1.77
2023-05-02T21:18:26.406Z,1.83
2023-05-02T21:20:54.506Z,1.95
2023-05-02T21:23:22.388Z,3.03
2023-05-02T21:25:50.069Z,2.83
2023-05-02T21:28:17.677Z,2.80
2023-05-02T21:30:47.047Z,2.87
2023-05-02T21:33:17.484Z,3.20
2023-05-02T21:35:46.739Z,3.13
2023-05-02T21:38:14.436Z,3.10
2023-05-02T21:40:42.317Z,2.90
2023-05-02T21:43:10.546Z,2.77
2023-05-02T21:45:44.355Z,3.10
2023-05-02T21:48:13.915Z,2.55
2023-05-02T21:50:42.538Z,2.50
2023-05-02T21:53:11.032Z,2.30
2023-05-02T21:55:39.760Z,1.93
2023-05-02T21:58:09.331Z,1.90
2023-05-02T22:00:38.523Z,2.40
2023-05-02T22:03:08.726Z,1.98
2023-05-02T22:05:41.746Z,2.38
2023-05-02T22:08:12.876Z,2.03
2023-05-02T22:10:42.490Z,2.55
2023-05-02T22:13:13.949Z,2.38
2023-05-02T22:15:42.866Z,2.35
2023-05-02T22:18:10.716Z,2.50
2023-05-02T22:20:39.772Z,2.20
2023-05-02T22:23:08.163Z,2.08
2023-05-02T22:25:36.766Z,2.28
2023-05-02T22:28:07.047Z,2.80
2023-05-02T22:30:34.953Z,2.40
2023-05-02T22:33:03.253Z,2.00
2023-05-02T22:35:31.701Z,2.42
2023-05-02T22:38:02.324Z,2.50
2023-05-02T22:40:31.395Z,2.30
2023-05-02T22:42:59.616Z,2.60
2023-05-02T22:45:28.110Z,2.30
2023-05-02T22:47:56.872Z,2.55
2023-05-02T22:50:26.301Z,2.65
2023-05-02T22:52:57.452Z,2.95
2023-05-02T22:55:26.783Z,2.70
2023-05-02T22:57:54.564Z,2.47
2023-05-02T23:00:23.653Z,2.90
2023-05-02T23:02:51.377Z,3.00
2023-05-02T23:05:20.088Z,2.80
2023-05-02T23:07:48.498Z,3.65
2023-05-02T23:10:16.866Z,3.30
2023-05-02T23:12:46.600Z,3.20
2023-05-02T23:15:14.635Z,3.60
2023-05-02T23:17:42.874Z,3.17
2023-05-02T23:20:11.568Z,3.42
2023-05-02T23:22:45.211Z,3.47
2023-05-02T23:25:13.927Z,3.42
2023-05-02T23:27:41.673Z,3.55
2023-05-02T23:30:11.395Z,3.40
2023-05-02T23:32:39.628Z,3.15
2023-05-02T23:35:08.570Z,3.60
2023-05-02T23:37:36.272Z,3.42
2023-05-02T23:40:05.004Z,3.58
2023-05-02T23:42:34.282Z,3.78
2023-05-02T23:45:02.084Z,3.00
2023-05-02T23:47:31.282Z,3.10
2023-05-02T23:49:59.009Z,3.10
2023-05-02T23:52:26.949Z,2.85
2023-05-02T23:54:54.842Z,2.92
2023-05-02T23:57:22.791Z,2.97
2023-05-02T23:59:51.714Z,2.87
